Terminal Aerodrome Forecast
Issued by NWS Pittsburgh, PA

Current Version | Previous Version | Text Only | Print | Product List | Glossary Off
Versions: 1 2 3 4 5 6 7 8 9 10 11 12 13 14 15 16 17 18 19 20 21 22 23 24 25 26 27 28 29 30 31

000
FTUS41 KPBZ 191907 AAA
TAFPIT
TAF AMD
KPIT 191907Z 1919/2024 16003KT P6SM OVC012
     FM200300 18003KT P6SM BKN050
     FM201000 09005KT P6SM OVC080
     FM201300 12006KT 3SM -RA BR OVC010 WS020/19035KT
     FM201700 19006KT 2SM BR VCSH OVC007=

USA.gov is the U.S. government's official web portal to all federal, state and local government web resources and services.